sensor_id;sensor_type;location;lat;lon;timestamp;P1;durP1;ratioP1;P2;durP2;ratioP2
75048;SDS011;63803;53.120;8.764;2023-03-01T00:01:14;6.07;;;3.55;;
75048;SDS011;63803;53.120;8.764;2023-03-01T00:03:44;5.63;;;4.05;;
75048;SDS011;63803;53.120;8.764;2023-03-01T00:06:10;6.78;;;3.53;;
75048;SDS011;63803;53.120;8.764;2023-03-01T00:08:36;5.93;;;3.47;;
75048;SDS011;63803;53.120;8.764;2023-03-01T00:13:51;4.65;;;3.60;;
75048;SDS011;63803;53.120;8.764;2023-03-01T00:16:29;7.63;;;3.63;;
75048;SDS011;63803;53.120;8.764;2023-03-01T00:18:56;6.95;;;3.83;;
75048;SDS011;63803;53.120;8.764;2023-03-01T00:21:23;6.25;;;4.00;;
75048;SDS011;63803;53.120;8.764;2023-03-01T00:23:50;5.63;;;3.95;;
75048;SDS011;63803;53.120;8.764;2023-03-01T00:26:16;7.50;;;3.20;;
75048;SDS011;63803;53.120;8.764;2023-03-01T00:28:42;7.07;;;3.25;;
75048;SDS011;63803;53.120;8.764;2023-03-01T00:31:11;6.93;;;3.70;;
75048;SDS011;63803;53.120;8.764;2023-03-01T00:33:39;6.30;;;3.53;;
75048;SDS011;63803;53.120;8.764;2023-03-01T00:36:05;4.18;;;3.22;;
75048;SDS011;63803;53.120;8.764;2023-03-01T00:38:34;5.65;;;3.10;;
75048;SDS011;63803;53.120;8.764;2023-03-01T00:41:04;7.43;;;3.53;;
75048;SDS011;63803;53.120;8.764;2023-03-01T00:43:30;3.88;;;2.97;;
75048;SDS011;63803;53.120;8.764;2023-03-01T00:46:34;6.18;;;3.83;;
75048;SDS011;63803;53.120;8.764;2023-03-01T00:48:55;5.88;;;3.00;;
75048;SDS011;63803;53.120;8.764;2023-03-01T00:51:22;5.68;;;3.88;;
75048;SDS011;63803;53.120;8.764;2023-03-01T00:53:50;5.53;;;3.17;;
75048;SDS011;63803;53.120;8.764;2023-03-01T00:56:16;6.22;;;3.45;;
75048;SDS011;63803;53.120;8.764;2023-03-01T00:58:42;7.03;;;3.70;;
75048;SDS011;63803;53.120;8.764;2023-03-01T01:01:12;6.68;;;3.45;;
75048;SDS011;63803;53.120;8.764;2023-03-01T01:04:03;10.63;;;3.80;;
75048;SDS011;63803;53.120;8.764;2023-03-01T01:06:32;6.85;;;3.50;;
75048;SDS011;63803;53.120;8.764;2023-03-01T01:08:59;6.05;;;3.38;;
75048;SDS011;63803;53.120;8.764;2023-03-01T01:11:27;6.03;;;3.50;;
75048;SDS011;63803;53.120;8.764;2023-03-01T01:13:54;5.35;;;3.30;;
75048;SDS011;63803;53.120;8.764;2023-03-01T01:16:20;8.30;;;3.33;;
75048;SDS011;63803;53.120;8.764;2023-03-01T01:18:47;6.30;;;3.95;;
75048;SDS011;63803;53.120;8.764;2023-03-01T01:21:14;4.80;;;3.33;;
75048;SDS011;63803;53.120;8.764;2023-03-01T01:23:41;5.72;;;3.30;;
75048;SDS011;63803;53.120;8.764;2023-03-01T01:26:41;6.30;;;3.75;;
75048;SDS011;63803;53.120;8.764;2023-03-01T01:29:00;5.43;;;2.85;;
75048;SDS011;63803;53.120;8.764;2023-03-01T01:31:27;5.25;;;3.38;;
75048;SDS011;63803;53.120;8.764;2023-03-01T01:33:54;6.05;;;3.50;;
75048;SDS011;63803;53.120;8.764;2023-03-01T01:36:20;6.53;;;3.60;;
75048;SDS011;63803;53.120;8.764;2023-03-01T01:38:45;5.43;;;3.80;;
75048;SDS011;63803;53.120;8.764;2023-03-01T01:41:11;9.02;;;3.42;;
75048;SDS011;63803;53.120;8.764;2023-03-01T01:43:39;6.28;;;3.53;;
75048;SDS011;63803;53.120;8.764;2023-03-01T01:46:14;6.88;;;3.88;;
75048;SDS011;63803;53.120;8.764;2023-03-01T01:48:48;5.13;;;3.17;;
75048;SDS011;63803;53.120;8.764;2023-03-01T01:51:36;6.50;;;3.38;;
75048;SDS011;63803;53.120;8.764;2023-03-01T01:54:23;4.60;;;3.30;;
75048;SDS011;63803;53.120;8.764;2023-03-01T01:56:54;6.03;;;3.63;;
75048;SDS011;63803;53.120;8.764;2023-03-01T01:59:24;5.85;;;3.10;;
75048;SDS011;63803;53.120;8.764;2023-03-01T02:01:51;4.53;;;2.97;;
75048;SDS011;63803;53.120;8.764;2023-03-01T02:04:17;4.93;;;3.30;;
75048;SDS011;63803;53.120;8.764;2023-03-01T02:06:51;6.95;;;3.30;;
75048;SDS011;63803;53.120;8.764;2023-03-01T02:09:24;4.97;;;3.30;;
75048;SDS011;63803;53.120;8.764;2023-03-01T02:11:51;5.00;;;3.42;;
75048;SDS011;63803;53.120;8.764;2023-03-01T02:14:17;5.40;;;3.25;;
75048;SDS011;63803;53.120;8.764;2023-03-01T02:16:43;6.60;;;3.50;;
75048;SDS011;63803;53.120;8.764;2023-03-01T02:19:10;3.60;;;2.97;;
75048;SDS011;63803;53.120;8.764;2023-03-01T02:22:19;4.03;;;3.05;;
75048;SDS011;63803;53.120;8.764;2023-03-01T02:25:06;7.32;;;3.22;;
75048;SDS011;63803;53.120;8.764;2023-03-01T02:27:52;6.57;;;2.85;;
75048;SDS011;63803;53.120;8.764;2023-03-01T02:30:25;5.30;;;3.05;;
75048;SDS011;63803;53.120;8.764;2023-03-01T02:32:53;4.55;;;3.00;;
75048;SDS011;63803;53.120;8.764;2023-03-01T02:35:27;5.65;;;3.38;;
75048;SDS011;63803;53.120;8.764;2023-03-01T02:37:59;5.53;;;3.20;;
75048;SDS011;63803;53.120;8.764;2023-03-01T02:40:27;4.88;;;3.28;;
75048;SDS011;63803;53.120;8.764;2023-03-01T02:42:56;5.50;;;3.17;;
75048;SDS011;63803;53.120;8.764;2023-03-01T02:45:22;5.05;;;3.30;;
75048;SDS011;63803;53.120;8.764;2023-03-01T02:47:48;4.60;;;3.17;;
75048;SDS011;63803;53.120;8.764;2023-03-01T02:50:29;8.05;;;2.95;;
75048;SDS011;63803;53.120;8.764;2023-03-01T02:53:11;4.88;;;3.30;;
75048;SDS011;63803;53.120;8.764;2023-03-01T02:55:58;5.15;;;2.92;;
75048;SDS011;63803;53.120;8.764;2023-03-01T02:58:24;5.47;;;3.13;;
75048;SDS011;63803;53.120;8.764;2023-03-01T03:00:49;6.15;;;3.15;;
75048;SDS011;63803;53.120;8.764;2023-03-01T03:03:19;4.20;;;3.17;;
75048;SDS011;63803;53.120;8.764;2023-03-01T03:05:46;5.40;;;3.13;;
75048;SDS011;63803;53.120;8.764;2023-03-01T03:08:12;4.85;;;3.05;;
75048;SDS011;63803;53.120;8.764;2023-03-01T03:10:39;5.20;;;3.10;;
75048;SDS011;63803;53.120;8.764;2023-03-01T03:13:07;6.72;;;3.33;;
75048;SDS011;63803;53.120;8.764;2023-03-01T03:15:38;5.63;;;2.67;;
75048;SDS011;63803;53.120;8.764;2023-03-01T03:18:06;6.55;;;2.55;;
75048;SDS011;63803;53.120;8.764;2023-03-01T03:20:34;4.28;;;2.92;;
75048;SDS011;63803;53.120;8.764;2023-03-01T03:23:00;4.60;;;3.00;;
75048;SDS011;63803;53.120;8.764;2023-03-01T03:25:26;6.07;;;3.15;;
75048;SDS011;63803;53.120;8.764;2023-03-01T03:27:53;6.97;;;2.75;;
75048;SDS011;63803;53.120;8.764;2023-03-01T03:30:21;3.78;;;3.00;;
75048;SDS011;63803;53.120;8.764;2023-03-01T03:32:48;5.72;;;2.95;;
75048;SDS011;63803;53.120;8.764;2023-03-01T03:37:50;5.35;;;3.30;;
75048;SDS011;63803;53.120;8.764;2023-03-01T03:40:41;4.75;;;2.90;;
75048;SDS011;63803;53.120;8.764;2023-03-01T03:43:10;5.13;;;3.25;;
75048;SDS011;63803;53.120;8.764;2023-03-01T03:45:38;5.05;;;3.28;;
75048;SDS011;63803;53.120;8.764;2023-03-01T03:48:04;4.47;;;3.33;;
75048;SDS011;63803;53.120;8.764;2023-03-01T03:50:31;5.38;;;2.75;;
75048;SDS011;63803;53.120;8.764;2023-03-01T03:52:57;6.28;;;2.80;;
75048;SDS011;63803;53.120;8.764;2023-03-01T03:55:22;4.82;;;3.03;;
75048;SDS011;63803;53.120;8.764;2023-03-01T03:57:53;7.10;;;2.70;;
75048;SDS011;63803;53.120;8.764;2023-03-01T04:00:20;5.20;;;3.15;;
75048;SDS011;63803;53.120;8.764;2023-03-01T04:02:48;4.47;;;3.00;;
75048;SDS011;63803;53.120;8.764;2023-03-01T04:05:16;4.00;;;2.85;;
75048;SDS011;63803;53.120;8.764;2023-03-01T04:07:43;4.70;;;2.97;;
75048;SDS011;63803;53.120;8.764;2023-03-01T04:10:10;4.75;;;3.10;;
75048;SDS011;63803;53.120;8.764;2023-03-01T04:12:37;4.28;;;2.90;;
75048;SDS011;63803;53.120;8.764;2023-03-01T04:15:03;5.10;;;3.10;;
75048;SDS011;63803;53.120;8.764;2023-03-01T04:17:41;5.50;;;3.00;;
75048;SDS011;63803;53.120;8.764;2023-03-01T04:20:11;3.85;;;3.03;;
75048;SDS011;63803;53.120;8.764;2023-03-01T04:22:38;6.50;;;3.35;;
75048;SDS011;63803;53.120;8.764;2023-03-01T04:25:04;4.10;;;2.80;;
75048;SDS011;63803;53.120;8.764;2023-03-01T04:27:34;5.57;;;3.60;;
75048;SDS011;63803;53.120;8.764;2023-03-01T04:30:00;5.57;;;2.90;;
75048;SDS011;63803;53.120;8.764;2023-03-01T04:32:25;4.53;;;3.05;;
75048;SDS011;63803;53.120;8.764;2023-03-01T04:34:50;4.43;;;2.90;;
75048;SDS011;63803;53.120;8.764;2023-03-01T04:37:16;6.88;;;3.58;;
75048;SDS011;63803;53.120;8.764;2023-03-01T04:39:41;5.15;;;3.13;;
75048;SDS011;63803;53.120;8.764;2023-03-01T04:42:16;3.92;;;2.97;;
75048;SDS011;63803;53.120;8.764;2023-03-01T04:44:42;4.60;;;2.90;;
75048;SDS011;63803;53.120;8.764;2023-03-01T04:47:09;4.30;;;2.92;;
75048;SDS011;63803;53.120;8.764;2023-03-01T04:49:34;5.43;;;3.10;;
75048;SDS011;63803;53.120;8.764;2023-03-01T04:52:00;5.55;;;2.60;;
75048;SDS011;63803;53.120;8.764;2023-03-01T04:54:32;5.90;;;3.58;;
75048;SDS011;63803;53.120;8.764;2023-03-01T04:56:59;3.47;;;2.83;;
75048;SDS011;63803;53.120;8.764;2023-03-01T04:59:25;6.28;;;3.03;;
75048;SDS011;63803;53.120;8.764;2023-03-01T05:01:51;7.03;;;3.25;;
75048;SDS011;63803;53.120;8.764;2023-03-01T05:04:17;4.38;;;2.97;;
75048;SDS011;63803;53.120;8.764;2023-03-01T05:06:43;4.95;;;2.88;;
75048;SDS011;63803;53.120;8.764;2023-03-01T05:09:09;3.75;;;2.70;;
75048;SDS011;63803;53.120;8.764;2023-03-01T05:11:36;4.32;;;2.95;;
75048;SDS011;63803;53.120;8.764;2023-03-01T05:14:03;3.78;;;2.75;;
75048;SDS011;63803;53.120;8.764;2023-03-01T05:16:30;5.53;;;3.13;;
75048;SDS011;63803;53.120;8.764;2023-03-01T05:18:56;4.63;;;3.13;;
75048;SDS011;63803;53.120;8.764;2023-03-01T05:21:21;4.75;;;3.17;;
75048;SDS011;63803;53.120;8.764;2023-03-01T05:23:47;4.40;;;3.17;;
75048;SDS011;63803;53.120;8.764;2023-03-01T05:26:13;6.90;;;3.08;;
75048;SDS011;63803;53.120;8.764;2023-03-01T05:28:39;8.82;;;3.00;;
75048;SDS011;63803;53.120;8.764;2023-03-01T05:31:04;7.00;;;3.53;;
75048;SDS011;63803;53.120;8.764;2023-03-01T05:33:37;7.60;;;3.33;;
75048;SDS011;63803;53.120;8.764;2023-03-01T05:36:04;5.28;;;3.35;;
75048;SDS011;63803;53.120;8.764;2023-03-01T05:38:31;4.53;;;3.08;;
75048;SDS011;63803;53.120;8.764;2023-03-01T05:40:56;5.93;;;3.92;;
75048;SDS011;63803;53.120;8.764;2023-03-01T05:43:22;7.00;;;3.78;;
75048;SDS011;63803;53.120;8.764;2023-03-01T05:45:48;5.57;;;3.70;;
75048;SDS011;63803;53.120;8.764;2023-03-01T05:48:13;6.65;;;3.45;;
75048;SDS011;63803;53.120;8.764;2023-03-01T05:50:40;6.28;;;3.80;;
75048;SDS011;63803;53.120;8.764;2023-03-01T05:53:09;6.88;;;4.10;;
75048;SDS011;63803;53.120;8.764;2023-03-01T05:55:37;4.50;;;3.13;;
75048;SDS011;63803;53.120;8.764;2023-03-01T05:58:04;4.68;;;3.65;;
75048;SDS011;63803;53.120;8.764;2023-03-01T06:00:33;5.60;;;3.65;;
75048;SDS011;63803;53.120;8.764;2023-03-01T06:03:00;6.53;;;4.20;;
75048;SDS011;63803;53.120;8.764;2023-03-01T06:05:26;5.32;;;3.55;;
75048;SDS011;63803;53.120;8.764;2023-03-01T06:07:53;6.22;;;3.95;;
75048;SDS011;63803;53.120;8.764;2023-03-01T06:10:19;10.13;;;4.13;;
75048;SDS011;63803;53.120;8.764;2023-03-01T06:12:46;6.95;;;3.92;;
75048;SDS011;63803;53.120;8.764;2023-03-01T06:15:12;7.25;;;3.60;;
75048;SDS011;63803;53.120;8.764;2023-03-01T06:17:41;6.93;;;4.15;;
75048;SDS011;63803;53.120;8.764;2023-03-01T06:20:09;7.38;;;4.65;;
75048;SDS011;63803;53.120;8.764;2023-03-01T06:22:45;8.25;;;4.10;;
75048;SDS011;63803;53.120;8.764;2023-03-01T06:25:12;6.93;;;4.13;;
75048;SDS011;63803;53.120;8.764;2023-03-01T06:27:39;9.05;;;4.20;;
75048;SDS011;63803;53.120;8.764;2023-03-01T06:30:05;6.80;;;4.25;;
75048;SDS011;63803;53.120;8.764;2023-03-01T06:32:33;5.63;;;3.83;;
75048;SDS011;63803;53.120;8.764;2023-03-01T06:34:58;6.50;;;4.45;;
75048;SDS011;63803;53.120;8.764;2023-03-01T06:37:27;9.75;;;4.53;;
75048;SDS011;63803;53.120;8.764;2023-03-01T06:39:52;7.97;;;4.20;;
75048;SDS011;63803;53.120;8.764;2023-03-01T06:42:18;8.13;;;4.10;;
75048;SDS011;63803;53.120;8.764;2023-03-01T06:44:43;8.55;;;4.68;;
75048;SDS011;63803;53.120;8.764;2023-03-01T06:47:09;9.68;;;4.78;;
75048;SDS011;63803;53.120;8.764;2023-03-01T06:49:35;12.35;;;5.15;;
75048;SDS011;63803;53.120;8.764;2023-03-01T06:52:00;12.00;;;4.72;;
75048;SDS011;63803;53.120;8.764;2023-03-01T06:54:26;9.88;;;4.32;;
75048;SDS011;63803;53.120;8.764;2023-03-01T06:56:51;18.35;;;5.43;;
75048;SDS011;63803;53.120;8.764;2023-03-01T06:59:17;13.43;;;5.63;;
75048;SDS011;63803;53.120;8.764;2023-03-01T07:01:43;23.88;;;6.85;;
75048;SDS011;63803;53.120;8.764;2023-03-01T07:04:09;15.82;;;6.88;;
75048;SDS011;63803;53.120;8.764;2023-03-01T07:06:35;18.10;;;7.85;;
75048;SDS011;63803;53.120;8.764;2023-03-01T07:09:00;20.92;;;7.30;;
75048;SDS011;63803;53.120;8.764;2023-03-01T07:11:26;27.23;;;7.82;;
75048;SDS011;63803;53.120;8.764;2023-03-01T07:13:51;14.48;;;7.18;;
75048;SDS011;63803;53.120;8.764;2023-03-01T07:16:17;19.92;;;6.47;;
75048;SDS011;63803;53.120;8.764;2023-03-01T07:18:42;18.55;;;6.85;;
75048;SDS011;63803;53.120;8.764;2023-03-01T07:21:08;18.85;;;6.20;;
75048;SDS011;63803;53.120;8.764;2023-03-01T07:23:38;20.30;;;6.87;;
75048;SDS011;63803;53.120;8.764;2023-03-01T07:26:03;15.55;;;5.57;;
75048;SDS011;63803;53.120;8.764;2023-03-01T07:28:29;14.18;;;5.93;;
75048;SDS011;63803;53.120;8.764;2023-03-01T07:30:55;22.88;;;6.88;;
75048;SDS011;63803;53.120;8.764;2023-03-01T07:33:26;24.65;;;6.47;;
75048;SDS011;63803;53.120;8.764;2023-03-01T07:35:56;18.40;;;5.78;;
75048;SDS011;63803;53.120;8.764;2023-03-01T07:38:23;14.55;;;5.65;;
75048;SDS011;63803;53.120;8.764;2023-03-01T07:40:48;10.20;;;5.25;;
75048;SDS011;63803;53.120;8.764;2023-03-01T07:43:14;13.35;;;5.82;;
75048;SDS011;63803;53.120;8.764;2023-03-01T07:45:39;16.23;;;6.35;;
75048;SDS011;63803;53.120;8.764;2023-03-01T07:48:04;15.05;;;6.32;;
75048;SDS011;63803;53.120;8.764;2023-03-01T07:50:30;10.85;;;5.55;;
75048;SDS011;63803;53.120;8.764;2023-03-01T07:52:55;11.27;;;5.20;;
75048;SDS011;63803;53.120;8.764;2023-03-01T07:55:21;15.98;;;5.68;;
75048;SDS011;63803;53.120;8.764;2023-03-01T07:57:46;20.85;;;5.90;;
75048;SDS011;63803;53.120;8.764;2023-03-01T08:00:12;14.45;;;5.40;;
75048;SDS011;63803;53.120;8.764;2023-03-01T08:02:38;11.50;;;5.53;;
75048;SDS011;63803;53.120;8.764;2023-03-01T08:05:05;17.92;;;6.30;;
75048;SDS011;63803;53.120;8.764;2023-03-01T08:07:31;16.42;;;5.75;;
75048;SDS011;63803;53.120;8.764;2023-03-01T08:09:56;12.52;;;5.93;;
75048;SDS011;63803;53.120;8.764;2023-03-01T08:12:21;15.82;;;6.20;;
75048;SDS011;63803;53.120;8.764;2023-03-01T08:14:47;17.90;;;5.40;;
75048;SDS011;63803;53.120;8.764;2023-03-01T08:17:15;12.90;;;5.45;;
75048;SDS011;63803;53.120;8.764;2023-03-01T08:19:42;12.52;;;5.15;;
75048;SDS011;63803;53.120;8.764;2023-03-01T08:22:08;17.10;;;5.72;;
75048;SDS011;63803;53.120;8.764;2023-03-01T08:24:33;15.95;;;5.60;;
75048;SDS011;63803;53.120;8.764;2023-03-01T08:26:59;11.15;;;5.28;;
75048;SDS011;63803;53.120;8.764;2023-03-01T08:29:27;13.25;;;5.00;;
75048;SDS011;63803;53.120;8.764;2023-03-01T08:31:52;25.90;;;5.43;;
75048;SDS011;63803;53.120;8.764;2023-03-01T08:34:18;12.98;;;5.47;;
75048;SDS011;63803;53.120;8.764;2023-03-01T08:36:44;14.07;;;4.70;;
75048;SDS011;63803;53.120;8.764;2023-03-01T08:39:12;12.82;;;6.03;;
75048;SDS011;63803;53.120;8.764;2023-03-01T08:41:39;15.40;;;5.10;;
75048;SDS011;63803;53.120;8.764;2023-03-01T08:44:05;14.23;;;5.90;;
75048;SDS011;63803;53.120;8.764;2023-03-01T08:46:35;12.13;;;5.40;;
75048;SDS011;63803;53.120;8.764;2023-03-01T08:49:06;15.80;;;4.82;;
75048;SDS011;63803;53.120;8.764;2023-03-01T08:51:32;10.90;;;4.80;;
75048;SDS011;63803;53.120;8.764;2023-03-01T08:54:02;10.77;;;5.07;;
75048;SDS011;63803;53.120;8.764;2023-03-01T08:56:29;10.10;;;4.45;;
75048;SDS011;63803;53.120;8.764;2023-03-01T08:58:54;12.25;;;4.75;;
75048;SDS011;63803;53.120;8.764;2023-03-01T09:01:20;7.85;;;4.57;;
75048;SDS011;63803;53.120;8.764;2023-03-01T09:03:45;11.95;;;4.93;;
75048;SDS011;63803;53.120;8.764;2023-03-01T09:06:12;9.15;;;4.75;;
75048;SDS011;63803;53.120;8.764;2023-03-01T09:08:39;14.15;;;4.68;;
75048;SDS011;63803;53.120;8.764;2023-03-01T09:11:11;7.93;;;4.50;;
75048;SDS011;63803;53.120;8.764;2023-03-01T09:13:38;11.55;;;5.05;;
75048;SDS011;63803;53.120;8.764;2023-03-01T09:16:05;8.32;;;4.35;;
75048;SDS011;63803;53.120;8.764;2023-03-01T09:18:32;14.70;;;5.57;;
75048;SDS011;63803;53.120;8.764;2023-03-01T09:21:02;14.88;;;4.28;;
75048;SDS011;63803;53.120;8.764;2023-03-01T09:23:40;12.25;;;4.65;;
75048;SDS011;63803;53.120;8.764;2023-03-01T09:26:14;15.60;;;4.38;;
75048;SDS011;63803;53.120;8.764;2023-03-01T09:28:44;12.60;;;4.93;;
75048;SDS011;63803;53.120;8.764;2023-03-01T09:31:25;14.07;;;4.65;;
75048;SDS011;63803;53.120;8.764;2023-03-01T09:33:52;9.32;;;4.53;;
75048;SDS011;63803;53.120;8.764;2023-03-01T09:36:20;9.77;;;4.60;;
75048;SDS011;63803;53.120;8.764;2023-03-01T09:38:48;13.82;;;4.78;;
75048;SDS011;63803;53.120;8.764;2023-03-01T09:41:18;8.18;;;4.50;;
75048;SDS011;63803;53.120;8.764;2023-03-01T09:43:59;11.32;;;4.68;;
75048;SDS011;63803;53.120;8.764;2023-03-01T09:46:31;13.25;;;4.80;;
75048;SDS011;63803;53.120;8.764;2023-03-01T09:49:09;8.68;;;4.22;;
75048;SDS011;63803;53.120;8.764;2023-03-01T09:51:39;9.93;;;4.57;;
75048;SDS011;63803;53.120;8.764;2023-03-01T09:54:05;9.18;;;4.13;;
75048;SDS011;63803;53.120;8.764;2023-03-01T09:56:34;16.25;;;4.57;;
75048;SDS011;63803;53.120;8.764;2023-03-01T10:04:49;8.68;;;3.97;;
75048;SDS011;63803;53.120;8.764;2023-03-01T10:07:26;9.02;;;4.40;;
75048;SDS011;63803;53.120;8.764;2023-03-01T10:10:34;10.27;;;4.20;;
75048;SDS011;63803;53.120;8.764;2023-03-01T10:16:13;6.00;;;3.60;;
75048;SDS011;63803;53.120;8.764;2023-03-01T10:18:41;9.35;;;3.97;;
75048;SDS011;63803;53.120;8.764;2023-03-01T10:21:15;9.02;;;4.10;;
75048;SDS011;63803;53.120;8.764;2023-03-01T10:23:43;8.18;;;3.40;;
75048;SDS011;63803;53.120;8.764;2023-03-01T10:26:16;6.85;;;3.72;;
75048;SDS011;63803;53.120;8.764;2023-03-01T10:31:34;6.05;;;3.70;;
75048;SDS011;63803;53.120;8.764;2023-03-01T10:34:09;5.57;;;3.30;;
75048;SDS011;63803;53.120;8.764;2023-03-01T10:36:43;8.27;;;3.65;;
75048;SDS011;63803;53.120;8.764;2023-03-01T10:39:17;8.02;;;3.60;;
75048;SDS011;63803;53.120;8.764;2023-03-01T10:42:04;9.90;;;3.88;;
75048;SDS011;63803;53.120;8.764;2023-03-01T10:44:47;8.65;;;3.60;;
75048;SDS011;63803;53.120;8.764;2023-03-01T10:49:53;6.22;;;3.20;;
75048;SDS011;63803;53.120;8.764;2023-03-01T10:52:41;5.63;;;3.47;;
75048;SDS011;63803;53.120;8.764;2023-03-01T10:57:39;4.57;;;3.08;;
75048;SDS011;63803;53.120;8.764;2023-03-01T11:00:14;7.85;;;3.67;;
75048;SDS011;63803;53.120;8.764;2023-03-01T11:02:49;6.28;;;3.10;;
75048;SDS011;63803;53.120;8.764;2023-03-01T11:05:18;4.70;;;3.15;;
75048;SDS011;63803;53.120;8.764;2023-03-01T11:10:23;5.00;;;3.00;;
75048;SDS011;63803;53.120;8.764;2023-03-01T11:15:59;3.58;;;2.67;;
75048;SDS011;63803;53.120;8.764;2023-03-01T11:18:33;11.50;;;3.00;;
75048;SDS011;63803;53.120;8.764;2023-03-01T11:20:59;6.35;;;2.95;;
75048;SDS011;63803;53.120;8.764;2023-03-01T11:23:27;5.93;;;2.88;;
75048;SDS011;63803;53.120;8.764;2023-03-01T11:25:56;7.07;;;3.00;;
75048;SDS011;63803;53.120;8.764;2023-03-01T11:28:27;5.05;;;3.00;;
75048;SDS011;63803;53.120;8.764;2023-03-01T11:36:28;6.63;;;3.10;;
75048;SDS011;63803;53.120;8.764;2023-03-01T11:39:05;7.88;;;3.17;;
75048;SDS011;63803;53.120;8.764;2023-03-01T11:41:36;4.93;;;3.17;;
75048;SDS011;63803;53.120;8.764;2023-03-01T11:44:11;5.03;;;2.67;;
75048;SDS011;63803;53.120;8.764;2023-03-01T11:54:46;5.70;;;2.78;;
75048;SDS011;63803;53.120;8.764;2023-03-01T11:57:41;5.80;;;2.65;;
75048;SDS011;63803;53.120;8.764;2023-03-01T12:16:32;3.58;;;2.28;;
75048;SDS011;63803;53.120;8.764;2023-03-01T12:44:30;2.20;;;2.00;;
75048;SDS011;63803;53.120;8.764;2023-03-01T12:50:23;2.63;;;2.20;;
75048;SDS011;63803;53.120;8.764;2023-03-01T12:52:55;2.88;;;1.90;;
75048;SDS011;63803;53.120;8.764;2023-03-01T12:58:04;2.22;;;2.03;;
75048;SDS011;63803;53.120;8.764;2023-03-01T13:11:32;3.03;;;2.47;;
75048;SDS011;63803;53.120;8.764;2023-03-01T13:16:51;4.68;;;2.40;;
75048;SDS011;63803;53.120;8.764;2023-03-01T13:19:18;9.35;;;2.83;;
75048;SDS011;63803;53.120;8.764;2023-03-01T13:21:49;16.42;;;6.15;;
75048;SDS011;63803;53.120;8.764;2023-03-01T13:24:29;628.25;;;291.33;;
75048;SDS011;63803;53.120;8.764;2023-03-01T13:29:32;477.20;;;199.90;;
75048;SDS011;63803;53.120;8.764;2023-03-01T13:32:16;446.73;;;180.65;;
75048;SDS011;63803;53.120;8.764;2023-03-01T13:34:48;451.67;;;178.52;;
75048;SDS011;63803;53.120;8.764;2023-03-01T13:37:20;414.88;;;156.88;;
75048;SDS011;63803;53.120;8.764;2023-03-01T13:39:47;415.27;;;157.10;;
75048;SDS011;63803;53.120;8.764;2023-03-01T13:42:33;398.63;;;147.20;;
75048;SDS011;63803;53.120;8.764;2023-03-01T13:45:03;406.38;;;144.63;;
75048;SDS011;63803;53.120;8.764;2023-03-01T13:47:38;399.23;;;143.35;;
75048;SDS011;63803;53.120;8.764;2023-03-01T13:50:04;400.15;;;143.05;;
75048;SDS011;63803;53.120;8.764;2023-03-01T13:52:44;378.70;;;134.65;;
75048;SDS011;63803;53.120;8.764;2023-03-01T13:55:37;367.75;;;131.48;;
75048;SDS011;63803;53.120;8.764;2023-03-01T14:04:16;343.48;;;124.65;;
75048;SDS011;63803;53.120;8.764;2023-03-01T14:06:46;337.10;;;120.80;;
75048;SDS011;63803;53.120;8.764;2023-03-01T14:19:48;293.50;;;107.05;;
75048;SDS011;63803;53.120;8.764;2023-03-01T14:22:25;274.77;;;103.53;;
75048;SDS011;63803;53.120;8.764;2023-03-01T14:25:02;293.02;;;103.72;;
75048;SDS011;63803;53.120;8.764;2023-03-01T14:27:40;279.48;;;100.45;;
75048;SDS011;63803;53.120;8.764;2023-03-01T14:32:57;251.48;;;92.80;;
75048;SDS011;63803;53.120;8.764;2023-03-01T14:35:26;253.95;;;91.95;;
75048;SDS011;63803;53.120;8.764;2023-03-01T14:37:55;248.43;;;91.68;;
75048;SDS011;63803;53.120;8.764;2023-03-01T14:42:58;235.32;;;86.53;;
75048;SDS011;63803;53.120;8.764;2023-03-01T14:45:26;229.07;;;85.22;;
75048;SDS011;63803;53.120;8.764;2023-03-01T14:47:53;230.30;;;82.45;;
75048;SDS011;63803;53.120;8.764;2023-03-01T14:50:27;217.05;;;80.50;;
75048;SDS011;63803;53.120;8.764;2023-03-01T14:52:59;196.52;;;76.70;;
75048;SDS011;63803;53.120;8.764;2023-03-01T14:57:57;203.40;;;72.45;;
75048;SDS011;63803;53.120;8.764;2023-03-01T15:00:26;197.50;;;74.10;;
75048;SDS011;63803;53.120;8.764;2023-03-01T15:02:54;175.05;;;70.97;;
75048;SDS011;63803;53.120;8.764;2023-03-01T15:05:29;190.10;;;70.97;;
75048;SDS011;63803;53.120;8.764;2023-03-01T15:07:59;180.40;;;66.43;;
75048;SDS011;63803;53.120;8.764;2023-03-01T15:10:28;193.38;;;65.32;;
75048;SDS011;63803;53.120;8.764;2023-03-01T15:12:55;168.77;;;63.95;;
75048;SDS011;63803;53.120;8.764;2023-03-01T15:15:35;175.35;;;64.55;;
75048;SDS011;63803;53.120;8.764;2023-03-01T15:18:18;162.35;;;61.90;;
75048;SDS011;63803;53.120;8.764;2023-03-01T15:20:46;158.85;;;61.22;;
75048;SDS011;63803;53.120;8.764;2023-03-01T15:23:20;166.73;;;62.67;;
75048;SDS011;63803;53.120;8.764;2023-03-01T15:25:49;165.27;;;59.85;;
75048;SDS011;63803;53.120;8.764;2023-03-01T15:28:28;146.93;;;56.83;;
75048;SDS011;63803;53.120;8.764;2023-03-01T15:31:18;144.85;;;54.90;;
75048;SDS011;63803;53.120;8.764;2023-03-01T15:33:46;143.30;;;55.35;;
75048;SDS011;63803;53.120;8.764;2023-03-01T15:39:26;134.93;;;52.55;;
75048;SDS011;63803;53.120;8.764;2023-03-01T15:41:55;136.88;;;52.25;;
75048;SDS011;63803;53.120;8.764;2023-03-01T15:44:28;144.70;;;50.45;;
75048;SDS011;63803;53.120;8.764;2023-03-01T15:46:58;157.07;;;52.88;;
75048;SDS011;63803;53.120;8.764;2023-03-01T15:49:26;142.32;;;50.53;;
75048;SDS011;63803;53.120;8.764;2023-03-01T15:51:58;149.07;;;50.40;;
75048;SDS011;63803;53.120;8.764;2023-03-01T15:54:24;134.40;;;49.38;;
75048;SDS011;63803;53.120;8.764;2023-03-01T15:56:51;126.70;;;48.88;;
75048;SDS011;63803;53.120;8.764;2023-03-01T15:59:16;121.38;;;47.60;;
75048;SDS011;63803;53.120;8.764;2023-03-01T16:01:42;114.47;;;46.33;;
75048;SDS011;63803;53.120;8.764;2023-03-01T16:04:12;123.65;;;46.63;;
75048;SDS011;63803;53.120;8.764;2023-03-01T16:06:52;116.28;;;44.22;;
75048;SDS011;63803;53.120;8.764;2023-03-01T16:09:24;112.38;;;44.00;;
75048;SDS011;63803;53.120;8.764;2023-03-01T16:11:51;115.38;;;45.08;;
75048;SDS011;63803;53.120;8.764;2023-03-01T16:14:17;120.47;;;45.03;;
75048;SDS011;63803;53.120;8.764;2023-03-01T16:16:43;106.22;;;42.15;;
75048;SDS011;63803;53.120;8.764;2023-03-01T16:19:09;110.88;;;42.60;;
75048;SDS011;63803;53.120;8.764;2023-03-01T16:21:35;102.57;;;39.60;;
75048;SDS011;63803;53.120;8.764;2023-03-01T16:24:01;103.13;;;39.70;;
75048;SDS011;63803;53.120;8.764;2023-03-01T16:26:27;94.50;;;37.50;;
75048;SDS011;63803;53.120;8.764;2023-03-01T16:28:56;97.80;;;39.65;;
75048;SDS011;63803;53.120;8.764;2023-03-01T16:31:22;95.25;;;38.63;;
75048;SDS011;63803;53.120;8.764;2023-03-01T16:33:49;95.82;;;40.53;;
75048;SDS011;63803;53.120;8.764;2023-03-01T16:36:17;90.03;;;37.72;;
75048;SDS011;63803;53.120;8.764;2023-03-01T16:38:43;83.75;;;36.35;;
75048;SDS011;63803;53.120;8.764;2023-03-01T16:41:15;87.45;;;36.35;;
75048;SDS011;63803;53.120;8.764;2023-03-01T16:43:42;88.18;;;36.40;;
75048;SDS011;63803;53.120;8.764;2023-03-01T16:46:11;87.32;;;36.25;;
75048;SDS011;63803;53.120;8.764;2023-03-01T16:51:04;81.32;;;33.10;;
75048;SDS011;63803;53.120;8.764;2023-03-01T16:53:30;79.75;;;34.03;;
75048;SDS011;63803;53.120;8.764;2023-03-01T16:55:56;83.43;;;32.20;;
75048;SDS011;63803;53.120;8.764;2023-03-01T16:58:22;79.88;;;31.73;;
75048;SDS011;63803;53.120;8.764;2023-03-01T17:00:50;78.82;;;30.92;;
75048;SDS011;63803;53.120;8.764;2023-03-01T17:03:18;75.25;;;30.77;;
75048;SDS011;63803;53.120;8.764;2023-03-01T17:05:44;66.82;;;29.55;;